createdAt,value
2018-12-24T00:02:18.129Z,8.07
2018-12-24T00:04:46.427Z,8.05
2018-12-24T00:07:14.735Z,8.03
2018-12-24T00:09:43.064Z,7.97
2018-12-24T00:12:11.343Z,7.91
2018-12-24T00:14:39.631Z,7.86
2018-12-24T00:17:07.927Z,7.82
2018-12-24T00:19:36.215Z,7.81
2018-12-24T00:22:04.517Z,7.79
2018-12-24T00:24:32.826Z,7.75
2018-12-24T00:27:01.125Z,7.70
2018-12-24T00:29:29.414Z,7.69
2018-12-24T00:31:57.734Z,7.60
2018-12-24T00:34:26.017Z,7.54
2018-12-24T00:36:54.309Z,7.52
2018-12-24T00:39:22.619Z,7.48
2018-12-24T00:41:50.916Z,7.46
2018-12-24T00:44:19.201Z,7.40
2018-12-24T00:46:47.506Z,7.36
2018-12-24T00:49:15.797Z,7.34
2018-12-24T00:51:44.133Z,7.28
2018-12-24T00:54:12.426Z,7.27
2018-12-24T00:56:40.706Z,7.27
2018-12-24T00:59:09.026Z,7.22
2018-12-24T01:01:37.313Z,7.16
2018-12-24T01:04:05.615Z,7.13
2018-12-24T01:06:33.924Z,7.04
2018-12-24T01:09:02.230Z,7.00
2018-12-24T01:11:30.509Z,6.96
2018-12-24T01:13:58.805Z,6.92
2018-12-24T01:16:27.094Z,6.91
2018-12-24T01:18:55.395Z,6.93
2018-12-24T01:21:23.685Z,6.92
2018-12-24T01:23:51.986Z,6.93
2018-12-24T01:26:20.267Z,6.92
2018-12-24T01:28:48.568Z,6.92
2018-12-24T01:31:16.863Z,6.91
2018-12-24T01:33:45.159Z,6.91
2018-12-24T01:36:13.447Z,6.93
2018-12-24T01:38:41.747Z,6.92
2018-12-24T01:41:10.029Z,6.87
2018-12-24T01:43:38.331Z,6.86
2018-12-24T01:46:06.616Z,6.86
2018-12-24T01:48:34.914Z,6.83
2018-12-24T01:51:03.203Z,6.80
2018-12-24T01:53:31.500Z,6.76
2018-12-24T01:55:59.785Z,6.70
2018-12-24T01:58:28.101Z,6.66
2018-12-24T02:00:56.389Z,6.64
2018-12-24T02:03:24.677Z,6.67
2018-12-24T02:05:52.977Z,6.66
2018-12-24T02:08:21.266Z,6.63
2018-12-24T02:10:49.560Z,6.47
2018-12-24T02:13:17.848Z,6.35
2018-12-24T02:15:46.152Z,6.30
2018-12-24T02:18:14.459Z,6.28
2018-12-24T02:20:42.759Z,6.28
2018-12-24T02:23:11.041Z,6.19
2018-12-24T02:25:39.342Z,6.09
2018-12-24T02:28:07.630Z,6.05
2018-12-24T02:30:35.934Z,6.04
2018-12-24T02:33:04.247Z,6.03
2018-12-24T02:35:32.565Z,6.03
2018-12-24T02:38:00.859Z,6.04
2018-12-24T02:40:29.185Z,6.07
2018-12-24T02:42:57.496Z,6.06
2018-12-24T02:45:25.871Z,6.08
2018-12-24T02:47:54.140Z,5.99
2018-12-24T02:50:22.465Z,5.97
2018-12-24T02:52:50.752Z,5.98
2018-12-24T02:55:19.045Z,5.95
2018-12-24T02:57:47.335Z,5.95
2018-12-24T03:00:15.634Z,5.90
2018-12-24T03:02:43.968Z,5.89
2018-12-24T03:05:12.213Z,5.90
2018-12-24T03:07:40.497Z,5.85
2018-12-24T03:10:08.818Z,5.83
2018-12-24T03:12:37.129Z,5.83
2018-12-24T03:15:45.565Z,5.81
2018-12-24T03:18:13.869Z,5.80
2018-12-24T03:20:42.164Z,5.71
2018-12-24T03:23:10.437Z,5.58
2018-12-24T03:25:38.724Z,5.44
2018-12-24T03:28:07.009Z,5.34
2018-12-24T03:30:35.317Z,5.27
2018-12-24T03:33:03.598Z,5.20
2018-12-24T03:35:31.925Z,5.19
2018-12-24T03:38:00.210Z,5.15
2018-12-24T03:40:28.545Z,5.11
2018-12-24T03:42:56.817Z,5.15
2018-12-24T03:45:25.141Z,5.18
2018-12-24T03:47:53.449Z,5.15
2018-12-24T03:50:21.771Z,5.17
2018-12-24T03:52:50.146Z,5.13
2018-12-24T03:55:18.429Z,5.13
2018-12-24T03:57:46.728Z,5.09
2018-12-24T04:00:15.010Z,5.07
2018-12-24T04:02:43.311Z,5.06
2018-12-24T04:05:11.598Z,5.06
2018-12-24T04:07:39.893Z,5.04
2018-12-24T04:10:08.202Z,5.07
2018-12-24T04:12:36.522Z,5.10
2018-12-24T04:15:04.812Z,5.04
2018-12-24T04:17:33.113Z,4.92
2018-12-24T04:20:01.393Z,4.90
2018-12-24T04:22:29.702Z,4.89
2018-12-24T04:24:57.999Z,4.86
2018-12-24T04:27:26.297Z,4.87
2018-12-24T04:29:54.581Z,4.78
2018-12-24T04:32:22.878Z,4.73
2018-12-24T04:34:51.163Z,4.72
2018-12-24T04:37:19.464Z,4.72
2018-12-24T04:39:47.757Z,4.73
2018-12-24T04:42:16.053Z,4.74
2018-12-24T04:44:44.339Z,4.70
2018-12-24T04:47:12.637Z,4.63
2018-12-24T04:49:40.933Z,4.58
2018-12-24T04:52:09.246Z,4.55
2018-12-24T04:54:37.535Z,4.55
2018-12-24T04:57:05.834Z,4.55
2018-12-24T04:59:34.125Z,4.62
2018-12-24T05:02:02.422Z,4.64
2018-12-24T05:04:30.714Z,4.67
2018-12-24T05:06:59.040Z,4.74
2018-12-24T05:09:27.330Z,4.77
2018-12-24T05:11:55.631Z,4.77
2018-12-24T05:14:23.921Z,4.75
2018-12-24T05:16:52.211Z,4.76
2018-12-24T05:19:20.529Z,4.79
2018-12-24T05:21:48.838Z,4.81
2018-12-24T05:24:17.143Z,4.81
2018-12-24T05:26:45.450Z,4.80
2018-12-24T05:29:13.745Z,4.83
2018-12-24T05:31:42.063Z,4.82
2018-12-24T05:34:10.359Z,4.80
2018-12-24T05:36:38.643Z,4.79
2018-12-24T05:39:06.944Z,4.76
2018-12-24T05:41:35.228Z,4.75
2018-12-24T05:44:03.529Z,4.76
2018-12-24T05:46:31.822Z,4.73
2018-12-24T05:49:00.199Z,4.71
2018-12-24T05:51:28.488Z,4.68
2018-12-24T05:53:56.790Z,4.63
2018-12-24T05:56:25.078Z,4.60
2018-12-24T05:58:53.382Z,4.57
2018-12-24T06:01:21.696Z,4.58
2018-12-24T06:03:49.998Z,4.57
2018-12-24T06:06:18.286Z,4.58
2018-12-24T06:08:46.570Z,4.57
2018-12-24T06:11:14.887Z,4.56
2018-12-24T06:13:43.198Z,4.57
2018-12-24T06:16:11.532Z,4.57
2018-12-24T06:18:39.836Z,4.58
2018-12-24T06:21:08.132Z,4.59
2018-12-24T06:23:36.446Z,4.59
2018-12-24T06:26:04.760Z,4.60
2018-12-24T06:28:33.052Z,4.60
2018-12-24T06:31:01.433Z,4.58
2018-12-24T06:33:29.743Z,4.57
2018-12-24T06:35:58.038Z,4.58
2018-12-24T06:38:26.322Z,4.57
2018-12-24T06:40:54.624Z,4.55
2018-12-24T06:43:22.910Z,4.55
2018-12-24T06:45:51.215Z,4.53
2018-12-24T06:48:19.521Z,4.51
2018-12-24T06:50:47.841Z,4.52
2018-12-24T06:53:16.147Z,4.52
2018-12-24T06:55:44.451Z,4.55
2018-12-24T06:58:12.760Z,4.56
2018-12-24T07:00:41.085Z,4.57
2018-12-24T07:03:09.375Z,4.57
2018-12-24T07:05:37.678Z,4.58
2018-12-24T07:08:05.971Z,4.58
2018-12-24T07:10:34.296Z,4.58
2018-12-24T07:13:02.578Z,4.58
2018-12-24T07:15:30.903Z,4.57
2018-12-24T07:17:59.185Z,4.54
2018-12-24T07:20:27.472Z,4.53
2018-12-24T07:22:55.772Z,4.52
2018-12-24T07:25:24.082Z,4.51
2018-12-24T07:27:52.384Z,4.51
2018-12-24T07:30:20.696Z,4.49
2018-12-24T07:32:48.998Z,4.46
2018-12-24T07:35:17.283Z,4.48
2018-12-24T07:37:45.578Z,4.49
2018-12-24T07:40:13.861Z,4.50
2018-12-24T07:42:42.159Z,4.51
2018-12-24T07:45:10.445Z,4.52
2018-12-24T07:47:38.743Z,4.53
2018-12-24T07:50:07.055Z,4.54
2018-12-24T07:52:35.362Z,4.56
2018-12-24T07:55:03.650Z,4.58
2018-12-24T07:57:31.944Z,4.58
2018-12-24T08:00:00.232Z,4.58
2018-12-24T08:02:28.558Z,4.58
2018-12-24T08:04:56.857Z,4.55
2018-12-24T08:07:25.141Z,4.51
2018-12-24T08:09:53.439Z,4.48
2018-12-24T08:12:21.730Z,4.45
2018-12-24T08:14:50.018Z,4.43
2018-12-24T08:17:18.307Z,4.40
2018-12-24T08:19:46.626Z,4.37
2018-12-24T08:22:14.935Z,4.36
2018-12-24T08:24:43.256Z,4.33
2018-12-24T08:27:11.536Z,4.29
2018-12-24T08:29:39.841Z,4.30
2018-12-24T08:32:08.126Z,4.31
2018-12-24T08:34:36.425Z,4.35
2018-12-24T08:37:04.716Z,4.39
2018-12-24T08:39:33.037Z,4.47
2018-12-24T08:42:01.320Z,4.56
2018-12-24T08:44:29.622Z,4.65
2018-12-24T08:46:57.944Z,4.73
2018-12-24T08:49:26.247Z,4.81
2018-12-24T08:51:54.554Z,4.86
2018-12-24T08:54:22.852Z,4.92
2018-12-24T08:56:51.137Z,4.95
2018-12-24T08:59:19.433Z,4.95
2018-12-24T09:01:47.742Z,4.97
2018-12-24T09:04:16.046Z,4.93
2018-12-24T09:06:44.346Z,4.94
2018-12-24T09:09:12.634Z,4.96
2018-12-24T09:11:40.952Z,4.97
2018-12-24T09:14:09.240Z,5.04
2018-12-24T09:16:37.557Z,5.09
2018-12-24T09:19:05.868Z,5.17
2018-12-24T09:21:34.172Z,5.21
2018-12-24T09:24:02.458Z,5.31
2018-12-24T09:26:30.755Z,5.43
2018-12-24T09:28:59.134Z,5.54
2018-12-24T09:31:27.442Z,5.66
2018-12-24T09:33:55.741Z,5.81
2018-12-24T09:36:24.049Z,5.93
2018-12-24T09:38:52.331Z,6.04
2018-12-24T09:41:20.631Z,6.11
2018-12-24T09:43:48.914Z,6.19
2018-12-24T09:46:17.215Z,6.30
2018-12-24T09:48:45.522Z,6.38
2018-12-24T09:51:13.833Z,6.39
2018-12-24T09:53:42.143Z,6.40
2018-12-24T09:56:12.443Z,6.37
2018-12-24T09:58:40.463Z,6.37
2018-12-24T10:01:08.755Z,6.31
2018-12-24T10:06:32.110Z,6.35
2018-12-24T10:09:00.397Z,6.41
2018-12-24T10:11:28.734Z,6.50
2018-12-24T10:13:57.021Z,6.55
2018-12-24T10:16:25.307Z,6.62
2018-12-24T10:18:53.607Z,6.76
2018-12-24T10:21:21.896Z,6.90
2018-12-24T10:23:50.193Z,7.08
2018-12-24T10:26:18.482Z,7.15
2018-12-24T10:28:46.776Z,7.22
2018-12-24T10:31:15.073Z,7.23
2018-12-24T10:33:43.448Z,7.23
2018-12-24T10:36:11.740Z,7.20
2018-12-24T10:38:40.033Z,7.12
2018-12-24T10:41:08.318Z,7.06
2018-12-24T10:43:36.618Z,7.01
2018-12-24T10:46:04.910Z,6.96
2018-12-24T10:48:33.204Z,6.98
2018-12-24T10:51:01.493Z,7.02
2018-12-24T10:53:29.797Z,7.08
2018-12-24T10:55:58.105Z,7.14
2018-12-24T10:58:26.404Z,7.16
2018-12-24T11:00:54.713Z,7.15
2018-12-24T11:05:57.138Z,7.12
2018-12-24T11:08:25.448Z,7.07
2018-12-24T11:10:53.738Z,7.02
2018-12-24T11:13:22.026Z,6.95
2018-12-24T11:15:50.329Z,6.90
2018-12-24T11:18:18.620Z,6.87
2018-12-24T11:20:46.947Z,6.87
2018-12-24T11:23:15.232Z,6.86
2018-12-24T11:25:43.531Z,6.88
2018-12-24T11:28:11.821Z,6.87
2018-12-24T11:30:47.454Z,6.75
2018-12-24T11:33:15.742Z,6.67
2018-12-24T11:35:44.057Z,6.57
2018-12-24T11:38:12.350Z,6.56
2018-12-24T11:40:40.644Z,6.62
2018-12-24T11:43:08.933Z,6.67
2018-12-24T11:45:37.233Z,6.68
2018-12-24T11:48:05.516Z,6.64
2018-12-24T11:50:33.812Z,6.63
2018-12-24T11:53:02.102Z,6.61
2018-12-24T11:55:30.404Z,6.66
2018-12-24T11:57:58.693Z,6.65
2018-12-24T12:00:27.010Z,6.61
2018-12-24T12:02:55.293Z,6.50
2018-12-24T12:05:23.612Z,6.43
2018-12-24T12:07:51.897Z,6.42
2018-12-24T12:10:20.211Z,6.43
2018-12-24T12:12:48.522Z,6.49
2018-12-24T12:15:16.819Z,6.52
2018-12-24T12:17:45.110Z,6.54
2018-12-24T12:20:13.414Z,6.56
2018-12-24T12:22:41.738Z,6.60
2018-12-24T12:25:10.025Z,6.63
2018-12-24T12:27:38.316Z,6.67
2018-12-24T12:33:07.882Z,6.74
2018-12-24T12:35:36.177Z,6.72
2018-12-24T12:38:04.489Z,6.70
2018-12-24T12:40:32.780Z,6.72
2018-12-24T12:43:01.098Z,6.74
2018-12-24T12:45:29.403Z,6.74
2018-12-24T12:47:57.703Z,6.79
2018-12-24T12:50:25.988Z,6.83
2018-12-24T12:52:54.310Z,6.80
2018-12-24T12:55:22.604Z,6.76
2018-12-24T12:57:50.897Z,6.73
2018-12-24T13:00:19.187Z,6.73
2018-12-24T13:02:47.487Z,6.82
2018-12-24T13:05:15.769Z,6.96
2018-12-24T13:07:44.091Z,7.03
2018-12-24T13:10:12.400Z,7.02
2018-12-24T13:12:40.693Z,6.96
2018-12-24T13:15:08.992Z,6.93
2018-12-24T13:17:37.313Z,6.88
2018-12-24T13:20:05.689Z,6.79
2018-12-24T13:22:33.969Z,6.72
2018-12-24T13:25:02.298Z,6.66
2018-12-24T13:27:30.585Z,6.58
2018-12-24T13:29:58.883Z,6.50
2018-12-24T13:32:27.200Z,6.40
2018-12-24T13:34:55.499Z,6.37
2018-12-24T13:37:23.809Z,6.37
2018-12-24T13:39:52.200Z,6.31
2018-12-24T13:42:20.464Z,6.27
2018-12-24T13:44:48.757Z,6.28
2018-12-24T13:47:17.047Z,6.28
2018-12-24T13:49:45.354Z,6.30
2018-12-24T13:52:13.643Z,6.26
2018-12-24T13:54:41.946Z,6.21
2018-12-24T13:57:10.235Z,6.12
2018-12-24T13:59:38.559Z,6.05
2018-12-24T14:02:06.847Z,5.97
2018-12-24T14:04:35.146Z,5.94
2018-12-24T14:07:03.440Z,5.93
2018-12-24T14:09:31.761Z,5.97
2018-12-24T14:12:00.042Z,6.00
2018-12-24T14:14:28.362Z,6.03
2018-12-24T14:16:56.693Z,5.91
2018-12-24T14:19:24.981Z,5.85
2018-12-24T14:21:53.392Z,5.78
2018-12-24T14:24:21.640Z,5.77
2018-12-24T14:26:49.942Z,5.80
2018-12-24T14:29:18.234Z,5.84
2018-12-24T14:31:46.534Z,5.84
2018-12-24T14:37:28.362Z,5.75
2018-12-24T14:39:56.680Z,5.73
2018-12-24T14:42:24.967Z,5.71
2018-12-24T14:44:53.324Z,5.70
2018-12-24T14:47:21.639Z,5.71
2018-12-24T14:49:49.928Z,5.73
2018-12-24T14:52:18.231Z,5.71
2018-12-24T14:54:46.519Z,5.72
2018-12-24T14:57:14.838Z,5.73
2018-12-24T14:59:43.126Z,5.73
2018-12-24T15:02:11.428Z,5.76
2018-12-24T15:04:39.713Z,5.78
2018-12-24T15:07:08.016Z,5.78
2018-12-24T15:09:36.307Z,5.75
2018-12-24T15:12:04.630Z,5.73
2018-12-24T15:14:32.923Z,5.73
2018-12-24T15:17:01.227Z,5.75
2018-12-24T15:22:43.574Z,5.78
2018-12-24T15:25:11.871Z,5.76
2018-12-24T15:27:40.174Z,5.73
2018-12-24T15:30:08.463Z,5.70
2018-12-24T15:32:36.766Z,5.70
2018-12-24T15:35:05.055Z,5.67
2018-12-24T15:37:33.354Z,5.65
2018-12-24T15:40:01.638Z,5.66
2018-12-24T15:42:32.036Z,5.66
2018-12-24T15:44:59.975Z,5.64
2018-12-24T15:47:28.271Z,5.63
2018-12-24T15:49:56.556Z,5.62
2018-12-24T15:52:24.856Z,5.63
2018-12-24T15:54:53.142Z,5.61
2018-12-24T15:57:21.443Z,5.57
2018-12-24T15:59:49.727Z,5.50
2018-12-24T16:02:18.022Z,5.44
2018-12-24T16:04:46.308Z,5.44
2018-12-24T16:07:14.608Z,5.43
2018-12-24T16:09:42.893Z,5.39
2018-12-24T16:12:11.178Z,5.33
2018-12-24T16:14:39.480Z,5.34
2018-12-24T16:17:07.775Z,5.33
2018-12-24T16:19:36.095Z,5.33
2018-12-24T16:22:04.379Z,5.36
2018-12-24T16:24:32.677Z,5.37
2018-12-24T16:27:00.968Z,5.33
2018-12-24T16:29:29.263Z,5.29
2018-12-24T16:31:57.554Z,5.27
2018-12-24T16:34:25.849Z,5.26
2018-12-24T16:36:54.139Z,5.28
2018-12-24T16:39:22.454Z,5.28
2018-12-24T16:41:50.748Z,7.29
2018-12-24T16:44:19.059Z,9.33
2018-12-24T16:46:47.364Z,10.62
2018-12-24T16:49:15.681Z,11.28
2018-12-24T16:51:43.993Z,11.75
2018-12-24T16:54:12.306Z,12.45
2018-12-24T16:57:00.025Z,13.01
2018-12-24T16:59:28.350Z,13.21
2018-12-24T17:01:56.666Z,12.15
2018-12-24T17:04:24.975Z,11.16
2018-12-24T17:06:53.274Z,10.29
2018-12-24T17:09:21.594Z,9.61
2018-12-24T17:11:49.898Z,9.03
2018-12-24T17:14:18.197Z,8.41
2018-12-24T17:16:46.484Z,8.01
2018-12-24T17:19:14.802Z,7.67
2018-12-24T17:21:43.111Z,7.38
2018-12-24T17:24:11.414Z,7.12
2018-12-24T17:26:39.699Z,6.89
2018-12-24T17:29:07.999Z,6.68
2018-12-24T17:31:36.290Z,6.51
2018-12-24T17:34:04.605Z,6.35
2018-12-24T17:36:32.915Z,6.23
2018-12-24T17:39:01.197Z,6.12
2018-12-24T17:41:29.493Z,6.01
2018-12-24T17:43:57.786Z,5.91
2018-12-24T17:46:45.533Z,5.87
2018-12-24T17:49:13.842Z,5.82
2018-12-24T17:51:42.163Z,5.74
2018-12-24T17:54:10.441Z,5.71
2018-12-24T17:56:38.736Z,5.70
2018-12-24T17:59:07.044Z,5.70
2018-12-24T18:01:35.362Z,5.68
2018-12-24T18:04:03.651Z,5.66
2018-12-24T18:06:31.950Z,5.61
2018-12-24T18:09:00.233Z,5.59
2018-12-24T18:11:28.538Z,5.55
2018-12-24T18:13:56.827Z,5.55
2018-12-24T18:16:25.128Z,5.56
2018-12-24T18:18:53.435Z,5.71
2018-12-24T18:21:21.733Z,5.96
2018-12-24T18:23:50.028Z,5.89
2018-12-24T18:26:18.324Z,7.16
2018-12-24T18:28:46.641Z,9.77
2018-12-24T18:31:19.964Z,11.67
2018-12-24T18:33:45.025Z,12.88
2018-12-24T18:36:13.343Z,13.82
2018-12-24T18:38:41.668Z,14.90
2018-12-24T18:41:09.956Z,15.42
2018-12-24T18:43:38.269Z,15.55
2018-12-24T18:46:06.593Z,15.80
2018-12-24T18:48:34.955Z,15.66
2018-12-24T18:51:03.254Z,15.40
2018-12-24T18:53:31.566Z,15.52
2018-12-24T18:55:59.873Z,15.75
2018-12-24T18:58:28.180Z,15.89
2018-12-24T19:00:56.484Z,16.07
2018-12-24T19:03:24.791Z,16.18
2018-12-24T19:05:53.109Z,16.32
2018-12-24T19:08:21.417Z,16.40
2018-12-24T19:10:49.734Z,16.45
2018-12-24T19:13:18.059Z,16.51
2018-12-24T19:15:46.365Z,16.58
2018-12-24T19:18:14.687Z,16.60
2018-12-24T19:20:43.018Z,16.68
2018-12-24T19:23:11.341Z,16.85
2018-12-24T19:25:39.650Z,17.13
2018-12-24T19:28:07.991Z,17.31
2018-12-24T19:30:36.321Z,17.42
2018-12-24T19:33:04.645Z,17.43
2018-12-24T19:35:32.955Z,17.52
2018-12-24T19:38:01.283Z,17.40
2018-12-24T19:40:29.594Z,17.36
2018-12-24T19:42:57.899Z,17.39
2018-12-24T19:45:26.239Z,17.29
2018-12-24T19:47:54.532Z,17.18
2018-12-24T19:50:22.853Z,17.18
2018-12-24T19:52:51.254Z,17.28
2018-12-24T19:55:19.564Z,17.31
2018-12-24T19:57:47.856Z,17.37
2018-12-24T20:00:16.165Z,17.46
2018-12-24T20:02:44.464Z,17.54
2018-12-24T20:05:12.786Z,17.53
2018-12-24T20:07:41.105Z,17.56
2018-12-24T20:10:09.422Z,17.61
2018-12-24T20:12:37.750Z,17.68
2018-12-24T20:15:46.196Z,17.65
2018-12-24T20:18:14.515Z,17.63
2018-12-24T20:20:42.826Z,17.66
2018-12-24T20:23:11.154Z,17.51
2018-12-24T20:25:39.460Z,17.48
2018-12-24T20:28:07.754Z,17.36
2018-12-24T20:30:36.058Z,17.03
2018-12-24T20:33:04.352Z,15.80
2018-12-24T20:35:32.679Z,14.57
2018-12-24T20:38:00.975Z,13.48
2018-12-24T20:40:29.281Z,12.57
2018-12-24T20:42:57.593Z,11.80
2018-12-24T20:45:25.885Z,11.16
2018-12-24T20:47:54.187Z,10.60
2018-12-24T20:50:22.480Z,10.12
2018-12-24T20:52:50.777Z,9.66
2018-12-24T20:55:19.059Z,9.26
2018-12-24T20:57:47.366Z,8.90
2018-12-24T21:00:15.657Z,8.63
2018-12-24T21:02:43.986Z,8.37
2018-12-24T21:05:12.249Z,8.15
2018-12-24T21:07:40.540Z,7.96
2018-12-24T21:10:08.847Z,7.76
2018-12-24T21:12:37.147Z,7.57
2018-12-24T21:18:19.786Z,7.29
2018-12-24T21:20:48.078Z,7.15
2018-12-24T21:23:16.376Z,7.06
2018-12-24T21:25:44.669Z,7.00
2018-12-24T21:28:12.971Z,6.93
2018-12-24T21:30:41.414Z,6.87
2018-12-24T21:33:09.715Z,6.87
2018-12-24T21:35:37.995Z,6.84
2018-12-24T21:38:06.298Z,6.83
2018-12-24T21:40:34.590Z,6.82
2018-12-24T21:43:02.935Z,6.79
2018-12-24T21:45:31.249Z,6.77
2018-12-24T21:47:59.569Z,6.75
2018-12-24T21:50:27.857Z,6.75
2018-12-24T21:52:56.156Z,6.69
2018-12-24T21:55:24.444Z,6.64
2018-12-24T21:57:52.813Z,6.60
2018-12-24T22:00:21.096Z,6.59
2018-12-24T22:02:49.404Z,6.62
2018-12-24T22:05:17.727Z,6.62
2018-12-24T22:07:46.018Z,6.59
2018-12-24T22:10:14.343Z,6.58
2018-12-24T22:12:42.630Z,6.56
2018-12-24T22:15:11.039Z,6.52
2018-12-24T22:17:39.295Z,6.52
2018-12-24T22:20:07.592Z,6.47
2018-12-24T22:22:35.881Z,6.44
2018-12-24T22:25:04.198Z,6.43
2018-12-24T22:27:32.482Z,6.42
2018-12-24T22:30:00.784Z,6.44
2018-12-24T22:32:29.087Z,6.45
2018-12-24T22:34:57.386Z,6.48
2018-12-24T22:37:25.672Z,6.48
2018-12-24T22:39:53.964Z,6.47
2018-12-24T22:42:41.688Z,6.48
2018-12-24T22:45:09.987Z,6.50
2018-12-24T22:47:38.276Z,6.52
2018-12-24T22:50:06.581Z,6.50
2018-12-24T22:52:34.866Z,6.50
2018-12-24T22:55:03.164Z,6.50
2018-12-24T22:57:31.448Z,6.51
2018-12-24T22:59:59.766Z,6.52
2018-12-24T23:02:28.058Z,6.54
2018-12-24T23:04:56.369Z,6.57
2018-12-24T23:07:24.660Z,6.59
2018-12-24T23:09:52.971Z,6.63
2018-12-24T23:12:21.266Z,6.62
2018-12-24T23:14:49.548Z,6.63
2018-12-24T23:17:17.846Z,6.60
2018-12-24T23:19:46.130Z,6.57
2018-12-24T23:22:14.451Z,6.58
2018-12-24T23:24:42.760Z,6.62
2018-12-24T23:27:11.080Z,6.65
2018-12-24T23:29:39.364Z,6.66
2018-12-24T23:32:07.672Z,6.67
2018-12-24T23:34:35.961Z,6.69
2018-12-24T23:37:04.254Z,6.72
2018-12-24T23:39:32.539Z,6.75
2018-12-24T23:42:00.862Z,6.76
2018-12-24T23:44:29.145Z,6.78
2018-12-24T23:46:57.466Z,6.80
2018-12-24T23:49:25.756Z,6.83
2018-12-24T23:51:54.056Z,6.81
2018-12-24T23:54:22.338Z,6.80
2018-12-24T23:56:50.702Z,6.79
2018-12-24T23:59:18.983Z,6.82
